createdAt,value
2018-04-18T00:00:59.034Z,99.9
2018-04-18T00:02:06.240Z,99.9
2018-04-18T00:03:13.191Z,99.9
2018-04-18T00:04:20.398Z,99.9
2018-04-18T00:05:27.654Z,99.9
2018-04-18T00:06:34.859Z,99.9
2018-04-18T00:07:42.072Z,99.9
2018-04-18T00:08:48.727Z,99.9
2018-04-18T00:09:56.010Z,99.9
2018-04-18T00:11:03.202Z,99.9
2018-04-18T00:12:10.261Z,99.9
2018-04-18T00:13:16.932Z,99.9
2018-04-18T00:14:24.125Z,99.9
2018-04-18T00:15:30.788Z,99.9
2018-04-18T00:16:37.996Z,99.9
2018-04-18T00:17:45.208Z,99.9
2018-04-18T00:18:52.427Z,99.9
2018-04-18T00:19:59.370Z,99.9
2018-04-18T00:21:06.579Z,99.9
2018-04-18T00:22:13.794Z,99.9
2018-04-18T00:23:21.004Z,99.9
2018-04-18T00:24:28.214Z,99.9
2018-04-18T00:25:35.437Z,99.9
2018-04-18T00:26:42.369Z,99.9
2018-04-18T00:27:49.568Z,99.9
2018-04-18T00:28:56.776Z,99.9
2018-04-18T00:30:03.981Z,99.9
2018-04-18T00:31:10.912Z,99.9
2018-04-18T00:32:18.121Z,99.9
2018-04-18T00:33:25.334Z,99.9
2018-04-18T00:34:32.542Z,99.9
2018-04-18T00:35:39.768Z,99.9
2018-04-18T00:36:46.975Z,99.9
2018-04-18T00:37:54.194Z,99.9
2018-04-18T00:39:01.130Z,99.9
2018-04-18T00:40:08.336Z,99.9
2018-04-18T00:41:15.584Z,99.9
2018-04-18T00:42:22.808Z,99.9
2018-04-18T00:43:30.018Z,99.9
2018-04-18T00:44:36.948Z,99.9
2018-04-18T00:45:44.158Z,99.9
2018-04-18T00:46:51.366Z,99.9
2018-04-18T00:47:58.305Z,99.9
2018-04-18T00:49:05.516Z,99.9
2018-04-18T00:50:12.718Z,99.9
2018-04-18T00:51:19.952Z,99.9
2018-04-18T00:52:27.158Z,99.9
2018-04-18T00:53:34.091Z,99.9
2018-04-18T00:54:41.018Z,99.9
2018-04-18T00:55:48.234Z,99.9
2018-04-18T00:56:55.435Z,99.9
2018-04-18T00:58:02.636Z,99.9
2018-04-18T00:59:09.845Z,99.9
2018-04-18T01:00:17.046Z,99.9
2018-04-18T01:01:24.269Z,99.9
2018-04-18T01:02:31.469Z,99.9
2018-04-18T01:03:38.674Z,99.9
2018-04-18T01:04:45.908Z,99.9
2018-04-18T01:05:53.306Z,99.9
2018-04-18T01:07:00.522Z,99.9
2018-04-18T01:08:07.785Z,99.9
2018-04-18T01:09:14.986Z,99.9
2018-04-18T01:10:22.195Z,99.9
2018-04-18T01:11:29.412Z,99.9
2018-04-18T01:12:36.622Z,99.9
2018-04-18T01:13:43.829Z,99.9
2018-04-18T01:14:50.779Z,99.9
2018-04-18T01:15:57.986Z,99.9
2018-04-18T01:17:04.925Z,99.9
2018-04-18T01:18:12.134Z,99.9
2018-04-18T01:19:18.792Z,99.9
2018-04-18T01:20:25.721Z,99.9
2018-04-18T01:21:32.935Z,99.9
2018-04-18T01:22:40.132Z,99.9
2018-04-18T01:23:47.338Z,99.9
2018-04-18T01:24:54.564Z,99.9
2018-04-18T01:26:01.753Z,99.9
2018-04-18T01:27:08.965Z,99.9
2018-04-18T01:28:16.172Z,99.9
2018-04-18T01:29:23.375Z,99.9
2018-04-18T01:30:30.587Z,99.9
2018-04-18T01:31:37.812Z,99.9
2018-04-18T01:32:45.018Z,99.9
2018-04-18T01:33:52.232Z,99.9
2018-04-18T01:34:59.437Z,99.9
2018-04-18T01:36:06.637Z,99.9
2018-04-18T01:37:13.840Z,99.9
2018-04-18T01:38:21.052Z,99.9
2018-04-18T01:39:28.272Z,99.9
2018-04-18T01:40:35.476Z,99.9
2018-04-18T01:41:42.680Z,99.9
2018-04-18T01:42:49.892Z,99.9
2018-04-18T01:43:56.850Z,99.9
2018-04-18T01:45:04.055Z,99.9
2018-04-18T01:46:11.257Z,99.9
2018-04-18T01:47:18.463Z,99.9
2018-04-18T01:48:25.692Z,99.9
2018-04-18T01:49:32.893Z,99.9
2018-04-18T01:50:40.101Z,99.9
2018-04-18T01:51:47.308Z,99.9
2018-04-18T01:52:54.239Z,99.9
2018-04-18T01:54:01.169Z,99.9
2018-04-18T01:55:08.378Z,99.9
2018-04-18T01:56:15.597Z,99.9
2018-04-18T01:57:22.803Z,99.9
2018-04-18T01:58:30.002Z,99.9
2018-04-18T01:59:36.965Z,99.9
2018-04-18T02:00:43.917Z,99.9
2018-04-18T02:01:51.128Z,99.9
2018-04-18T02:02:58.483Z,99.9
2018-04-18T02:04:05.413Z,99.9
2018-04-18T02:05:12.623Z,99.9
2018-04-18T02:06:19.846Z,99.9
2018-04-18T02:07:26.782Z,99.9
2018-04-18T02:08:34.008Z,99.9
2018-04-18T02:09:40.934Z,99.9
2018-04-18T02:10:48.139Z,99.9
2018-04-18T02:11:55.341Z,99.9
2018-04-18T02:13:15.958Z,99.9
2018-04-18T02:14:23.182Z,99.9
2018-04-18T02:15:30.118Z,99.9
2018-04-18T02:16:37.343Z,99.9
2018-04-18T02:17:44.268Z,99.9
2018-04-18T02:18:51.198Z,99.9
2018-04-18T02:19:58.405Z,99.9
2018-04-18T02:21:05.607Z,99.9
2018-04-18T02:22:12.813Z,99.9
2018-04-18T02:23:20.032Z,99.9
2018-04-18T02:24:26.973Z,99.9
2018-04-18T02:25:34.191Z,99.9
2018-04-18T02:26:41.397Z,99.9
2018-04-18T02:27:48.596Z,99.9
2018-04-18T02:28:55.805Z,99.9
2018-04-18T02:30:02.771Z,99.9
2018-04-18T02:31:09.751Z,99.9
2018-04-18T02:32:16.958Z,99.9
2018-04-18T02:33:24.167Z,99.9
2018-04-18T02:34:31.116Z,99.9
2018-04-18T02:35:38.324Z,99.9
2018-04-18T02:36:45.527Z,99.9
2018-04-18T02:37:52.731Z,99.9
2018-04-18T02:38:59.939Z,99.9
2018-04-18T02:40:07.151Z,99.9
2018-04-18T02:41:14.574Z,99.9
2018-04-18T02:42:21.777Z,99.9
2018-04-18T02:43:28.980Z,99.9
2018-04-18T02:44:36.192Z,99.9
2018-04-18T02:45:43.393Z,99.9
2018-04-18T02:46:50.605Z,99.9
2018-04-18T02:47:57.552Z,99.9
2018-04-18T02:49:04.765Z,99.9
2018-04-18T02:50:11.968Z,99.9
2018-04-18T02:51:19.184Z,99.9
2018-04-18T02:52:26.379Z,99.9
2018-04-18T02:53:33.581Z,99.9
2018-04-18T02:54:40.785Z,99.9
2018-04-18T02:55:47.998Z,99.9
2018-04-18T02:56:55.199Z,99.9
2018-04-18T02:58:02.138Z,99.9
2018-04-18T02:59:09.357Z,99.9
2018-04-18T03:00:16.559Z,99.9
2018-04-18T03:01:23.788Z,99.9
2018-04-18T03:02:30.726Z,99.9
2018-04-18T03:03:37.699Z,99.9
2018-04-18T03:04:44.920Z,99.9
2018-04-18T03:05:51.846Z,99.9
2018-04-18T03:06:59.072Z,99.9
2018-04-18T03:08:06.279Z,99.9
2018-04-18T03:09:13.726Z,99.9
2018-04-18T03:10:20.920Z,99.9
2018-04-18T03:11:28.159Z,99.9
2018-04-18T03:12:35.369Z,99.9
2018-04-18T03:13:42.594Z,99.9
2018-04-18T03:14:49.815Z,99.9
2018-04-18T03:15:57.059Z,99.9
2018-04-18T03:17:04.286Z,99.9
2018-04-18T03:18:11.714Z,99.9
2018-04-18T03:19:18.921Z,99.9
2018-04-18T03:20:26.358Z,99.9
2018-04-18T03:21:33.590Z,99.9
2018-04-18T03:22:40.803Z,99.9
2018-04-18T03:23:48.010Z,99.9
2018-04-18T03:24:55.215Z,99.9
2018-04-18T03:26:02.441Z,99.9
2018-04-18T03:27:09.660Z,99.9
2018-04-18T03:28:16.886Z,99.9
2018-04-18T03:29:23.857Z,99.9
2018-04-18T03:30:30.793Z,99.9
2018-04-18T03:31:38.505Z,99.9
2018-04-18T03:32:45.736Z,99.9
2018-04-18T03:33:52.937Z,99.9
2018-04-18T03:35:00.154Z,99.9
2018-04-18T03:36:07.359Z,99.9
2018-04-18T03:37:14.562Z,99.9
2018-04-18T03:38:22.004Z,99.9
2018-04-18T03:39:29.214Z,99.9
2018-04-18T03:40:36.434Z,99.9
2018-04-18T03:41:43.659Z,99.9
2018-04-18T03:42:50.880Z,99.9
2018-04-18T03:43:57.815Z,99.9
2018-04-18T03:45:05.034Z,99.9
2018-04-18T03:46:12.244Z,99.9
2018-04-18T03:47:19.687Z,99.9
2018-04-18T03:48:26.619Z,99.9
2018-04-18T03:49:34.045Z,99.9
2018-04-18T03:50:40.974Z,99.9
2018-04-18T03:51:48.181Z,99.9
2018-04-18T03:52:55.403Z,99.9
2018-04-18T03:54:02.624Z,99.9
2018-04-18T03:55:09.843Z,99.9
2018-04-18T03:56:17.050Z,99.9
2018-04-18T03:57:24.258Z,99.9
2018-04-18T03:58:31.198Z,99.9
2018-04-18T03:59:38.436Z,99.9
2018-04-18T04:00:45.651Z,99.9
2018-04-18T04:01:52.857Z,99.9
2018-04-18T04:03:00.103Z,99.9
2018-04-18T04:04:07.333Z,99.9
2018-04-18T04:05:14.539Z,99.9
2018-04-18T04:06:21.766Z,99.9
2018-04-18T04:07:28.968Z,99.9
2018-04-18T04:08:36.198Z,99.9
2018-04-18T04:09:43.425Z,99.9
2018-04-18T04:10:50.634Z,99.9
2018-04-18T04:11:57.877Z,99.9
2018-04-18T04:13:05.087Z,99.9
2018-04-18T04:14:12.292Z,99.9
2018-04-18T04:15:19.503Z,99.9
2018-04-18T04:16:26.755Z,99.9
2018-04-18T04:17:34.007Z,99.9
2018-04-18T04:18:41.214Z,99.9
2018-04-18T04:19:48.417Z,99.9
2018-04-18T04:20:55.351Z,99.9
2018-04-18T04:22:02.553Z,99.9
2018-04-18T04:23:09.779Z,99.9
2018-04-18T04:24:17.222Z,99.9
2018-04-18T04:25:24.428Z,99.9
2018-04-18T04:26:31.677Z,99.9
2018-04-18T04:27:38.625Z,99.9
2018-04-18T04:28:45.849Z,99.9
2018-04-18T04:29:53.098Z,99.9
2018-04-18T04:31:00.043Z,99.9
2018-04-18T04:32:07.243Z,99.9
2018-04-18T04:33:14.409Z,99.9
2018-04-18T04:34:21.625Z,99.9
2018-04-18T04:35:28.611Z,99.9
2018-04-18T04:36:35.813Z,99.9
2018-04-18T04:37:43.021Z,99.9
2018-04-18T04:38:49.953Z,99.9
2018-04-18T04:39:56.885Z,99.9
2018-04-18T04:41:03.836Z,99.9
2018-04-18T04:42:11.075Z,99.9
2018-04-18T04:43:18.279Z,99.9
2018-04-18T04:44:25.207Z,99.9
2018-04-18T04:45:32.128Z,99.9
2018-04-18T04:46:39.573Z,99.9
2018-04-18T04:47:46.785Z,99.9
2018-04-18T04:48:53.991Z,99.9
2018-04-18T04:50:01.196Z,99.9
2018-04-18T04:51:08.428Z,99.9
2018-04-18T04:52:15.637Z,99.9
2018-04-18T04:53:22.861Z,99.9
2018-04-18T04:54:30.074Z,99.9
2018-04-18T04:55:37.002Z,99.9
2018-04-18T04:56:44.206Z,99.9
2018-04-18T04:57:51.443Z,99.9
2018-04-18T04:58:58.662Z,99.9
2018-04-18T05:00:05.564Z,99.9
2018-04-18T05:01:12.767Z,99.9
2018-04-18T05:02:20.311Z,99.9
2018-04-18T05:03:27.511Z,99.9
2018-04-18T05:04:34.456Z,99.9
2018-04-18T05:05:41.662Z,99.9
2018-04-18T05:06:48.866Z,99.9
2018-04-18T05:07:56.070Z,99.9
2018-04-18T05:09:03.272Z,99.9
2018-04-18T05:10:10.478Z,99.9
2018-04-18T05:11:17.409Z,99.9
2018-04-18T05:12:24.616Z,99.9
2018-04-18T05:13:31.833Z,99.9
2018-04-18T05:14:39.042Z,99.9
2018-04-18T05:15:45.990Z,99.9
2018-04-18T05:16:53.203Z,99.9
2018-04-18T05:18:00.411Z,99.9
2018-04-18T05:19:07.612Z,99.9
2018-04-18T05:20:14.827Z,99.9
2018-04-18T05:21:22.043Z,99.9
2018-04-18T05:22:28.973Z,99.9
2018-04-18T05:23:36.194Z,99.9
2018-04-18T05:24:43.396Z,99.9
2018-04-18T05:25:50.606Z,99.9
2018-04-18T05:26:57.818Z,99.9
2018-04-18T05:28:05.023Z,99.9
2018-04-18T05:29:12.485Z,99.9
2018-04-18T05:30:19.734Z,99.9
2018-04-18T05:31:26.940Z,99.9
2018-04-18T05:32:34.150Z,99.9
2018-04-18T05:33:41.070Z,99.9
2018-04-18T05:34:48.289Z,99.9
2018-04-18T05:35:55.767Z,99.9
2018-04-18T05:37:02.721Z,99.9
2018-04-18T05:38:09.927Z,99.9
2018-04-18T05:39:17.148Z,99.9
2018-04-18T05:40:24.399Z,99.9
2018-04-18T05:41:31.609Z,99.9
2018-04-18T05:42:38.825Z,99.9
2018-04-18T05:43:46.026Z,99.9
2018-04-18T05:44:53.234Z,99.9
2018-04-18T05:46:00.456Z,99.9
2018-04-18T05:47:07.390Z,99.9
2018-04-18T05:48:14.342Z,99.9
2018-04-18T05:49:21.555Z,99.9
2018-04-18T05:50:28.771Z,99.9
2018-04-18T05:51:35.712Z,99.9
2018-04-18T05:52:42.639Z,99.9
2018-04-18T05:53:49.600Z,99.9
2018-04-18T05:54:56.543Z,99.9
2018-04-18T05:56:03.759Z,99.9
2018-04-18T05:57:10.429Z,99.9
2018-04-18T05:58:17.084Z,99.9
2018-04-18T05:59:24.301Z,99.9
2018-04-18T06:00:31.513Z,99.9
2018-04-18T06:01:38.733Z,99.9
2018-04-18T06:02:45.663Z,99.9
2018-04-18T06:03:52.590Z,99.9
2018-04-18T06:04:59.800Z,99.9
2018-04-18T06:06:06.997Z,99.9
2018-04-18T06:07:14.274Z,99.9
2018-04-18T06:08:21.476Z,99.9
2018-04-18T06:09:28.695Z,99.9
2018-04-18T06:10:35.916Z,99.9
2018-04-18T06:11:43.118Z,99.9
2018-04-18T06:12:50.336Z,99.9
2018-04-18T06:13:57.551Z,99.9
2018-04-18T06:15:04.494Z,99.9
2018-04-18T06:16:11.705Z,99.9
2018-04-18T06:17:18.911Z,99.9
2018-04-18T06:18:26.121Z,99.9
2018-04-18T06:19:33.325Z,99.9
2018-04-18T06:20:40.542Z,99.9
2018-04-18T06:21:47.746Z,99.9
2018-04-18T06:22:54.961Z,99.9
2018-04-18T06:24:02.161Z,99.9
2018-04-18T06:25:09.377Z,99.9
2018-04-18T06:26:16.307Z,99.9
2018-04-18T06:27:23.514Z,99.9
2018-04-18T06:28:30.724Z,99.9
2018-04-18T06:29:37.938Z,99.9
2018-04-18T06:30:44.879Z,99.9
2018-04-18T06:31:52.091Z,99.9
2018-04-18T06:32:59.324Z,99.9
2018-04-18T06:34:06.250Z,99.9
2018-04-18T06:35:13.483Z,99.9
2018-04-18T06:36:20.698Z,99.9
2018-04-18T06:37:27.654Z,99.9
2018-04-18T06:38:34.598Z,99.9
2018-04-18T06:39:41.543Z,99.9
2018-04-18T06:40:48.755Z,99.9
2018-04-18T06:41:55.980Z,99.9
2018-04-18T06:43:03.216Z,99.9
2018-04-18T06:44:10.443Z,99.9
2018-04-18T06:45:17.653Z,99.9
2018-04-18T06:46:24.593Z,99.9
2018-04-18T06:47:31.799Z,99.9
2018-04-18T06:48:38.725Z,99.9
2018-04-18T06:49:45.935Z,99.9
2018-04-18T06:50:52.879Z,99.9
2018-04-18T06:52:00.087Z,99.9
2018-04-18T06:53:07.298Z,99.9
2018-04-18T06:54:14.506Z,99.9
2018-04-18T06:55:21.715Z,99.9
2018-04-18T06:56:28.926Z,99.9
2018-04-18T06:57:36.142Z,99.9
2018-04-18T06:58:43.161Z,99.9
2018-04-18T06:59:50.373Z,99.9
2018-04-18T07:00:57.313Z,99.9
2018-04-18T07:02:04.523Z,99.9
2018-04-18T07:03:11.732Z,99.9
2018-04-18T07:04:18.945Z,99.9
2018-04-18T07:05:26.166Z,99.9
2018-04-18T07:06:32.832Z,99.9
2018-04-18T07:07:40.063Z,99.9
2018-04-18T07:08:47.272Z,99.9
2018-04-18T07:09:54.219Z,99.9
2018-04-18T07:11:01.446Z,99.9
2018-04-18T07:12:08.658Z,99.9
2018-04-18T07:13:15.594Z,99.9
2018-04-18T07:14:22.801Z,99.9
2018-04-18T07:15:30.025Z,99.9
2018-04-18T07:16:37.241Z,99.9
2018-04-18T07:17:44.456Z,99.9
2018-04-18T07:18:51.666Z,99.9
2018-04-18T07:19:58.883Z,99.9
2018-04-18T07:21:06.090Z,99.9
2018-04-18T07:22:13.309Z,99.9
2018-04-18T07:23:19.969Z,99.9
2018-04-18T07:24:26.905Z,99.9
2018-04-18T07:25:34.131Z,99.9
2018-04-18T07:26:41.065Z,99.9
2018-04-18T07:27:48.001Z,99.9
2018-04-18T07:28:55.206Z,99.9
2018-04-18T07:30:02.413Z,99.9
2018-04-18T07:31:09.630Z,99.9
2018-04-18T07:32:16.848Z,99.9
2018-04-18T07:33:24.059Z,99.9
2018-04-18T07:34:31.280Z,99.9
2018-04-18T07:35:38.498Z,99.9
2018-04-18T07:36:45.709Z,99.9
2018-04-18T07:37:52.929Z,99.9
2018-04-18T07:39:00.152Z,99.9
2018-04-18T07:40:07.403Z,99.9
2018-04-18T07:41:14.764Z,99.9
2018-04-18T07:42:21.703Z,99.9
2018-04-18T07:43:28.914Z,99.9
2018-04-18T07:44:35.862Z,99.9
2018-04-18T07:45:43.079Z,99.9
2018-04-18T07:46:50.292Z,99.9
2018-04-18T07:47:57.501Z,99.9
2018-04-18T07:49:04.462Z,99.9
2018-04-18T07:50:11.676Z,99.9
2018-04-18T07:51:18.893Z,99.9
2018-04-18T07:52:25.834Z,99.9
2018-04-18T07:53:33.044Z,99.9
2018-04-18T07:54:40.253Z,99.9
2018-04-18T07:55:47.465Z,99.9
2018-04-18T07:56:54.864Z,99.9
2018-04-18T07:58:02.081Z,99.9
2018-04-18T07:59:09.299Z,99.9
2018-04-18T08:00:16.508Z,99.9
2018-04-18T08:01:23.734Z,99.9
2018-04-18T08:02:30.963Z,99.9
2018-04-18T08:03:38.176Z,99.9
2018-04-18T08:04:45.387Z,99.9
2018-04-18T08:05:52.043Z,99.9
2018-04-18T08:06:58.986Z,99.9
2018-04-18T08:08:06.210Z,99.9
2018-04-18T08:09:13.438Z,99.9
2018-04-18T08:10:20.651Z,97.6
2018-04-18T08:11:27.603Z,99.9
2018-04-18T08:12:34.824Z,99.9
2018-04-18T08:13:42.038Z,99.9
2018-04-18T08:14:49.260Z,99.9
2018-04-18T08:15:56.194Z,99.9
2018-04-18T08:17:03.646Z,99.9
2018-04-18T08:18:10.869Z,99.9
2018-04-18T08:19:17.816Z,99.9
2018-04-18T08:20:24.761Z,99.2
2018-04-18T08:21:31.999Z,99.9
2018-04-18T08:22:39.237Z,98.1
2018-04-18T08:23:46.454Z,99.9
2018-04-18T08:24:53.691Z,99.9
2018-04-18T08:26:00.973Z,95.1
2018-04-18T08:27:08.186Z,95.7
2018-04-18T08:28:15.429Z,96.7
2018-04-18T08:29:22.651Z,91.9
2018-04-18T08:30:29.887Z,92.4
2018-04-18T08:31:37.107Z,94
2018-04-18T08:32:44.362Z,96.8
2018-04-18T08:33:51.027Z,98.1
2018-04-18T08:34:58.252Z,99
2018-04-18T08:36:05.464Z,95.4
2018-04-18T08:37:12.705Z,85.7
2018-04-18T08:38:19.920Z,95.4
2018-04-18T08:39:27.175Z,87.5
2018-04-18T08:40:34.391Z,88.5
2018-04-18T08:41:41.626Z,92.3
2018-04-18T08:42:48.996Z,92.1
2018-04-18T08:43:56.225Z,88.5
2018-04-18T08:45:03.187Z,94
2018-04-18T08:46:09.861Z,92.2
2018-04-18T08:47:17.082Z,84.2
2018-04-18T08:48:24.306Z,90.1
2018-04-18T08:49:31.529Z,78.4
2018-04-18T08:50:38.746Z,71.6
2018-04-18T08:51:45.688Z,87
2018-04-18T08:52:52.902Z,76.7
2018-04-18T08:53:59.861Z,86.8
2018-04-18T08:55:07.093Z,91.5
2018-04-18T08:56:14.298Z,80.9
2018-04-18T08:57:21.517Z,72.6
2018-04-18T08:58:28.460Z,88.2
2018-04-18T08:59:35.672Z,82.3
2018-04-18T09:00:42.890Z,81.6
2018-04-18T09:01:50.100Z,84
2018-04-18T09:02:57.332Z,75.2
2018-04-18T09:04:04.554Z,89
2018-04-18T09:05:11.265Z,78.8
2018-04-18T09:06:18.511Z,77
2018-04-18T09:07:25.757Z,71.6
2018-04-18T09:08:32.728Z,76.3
2018-04-18T09:09:39.954Z,64
2018-04-18T09:10:47.216Z,69.6
2018-04-18T09:11:54.438Z,69.7
2018-04-18T09:13:01.776Z,57.7
2018-04-18T09:14:08.994Z,59.6
2018-04-18T09:15:16.224Z,65.6
2018-04-18T09:16:23.451Z,65.6
2018-04-18T09:17:30.713Z,66
2018-04-18T09:18:37.943Z,65.6
2018-04-18T09:19:45.161Z,73.6
2018-04-18T09:20:52.374Z,68.8
2018-04-18T09:21:59.599Z,62.4
2018-04-18T09:23:06.822Z,54.1
2018-04-18T09:24:14.056Z,61.8
2018-04-18T09:25:21.288Z,68.5
2018-04-18T09:26:28.515Z,75
2018-04-18T09:27:35.732Z,63.7
2018-04-18T09:28:42.949Z,70.4
2018-04-18T09:29:49.909Z,62.7
2018-04-18T09:30:57.118Z,59.7
2018-04-18T09:32:04.335Z,58.5
2018-04-18T09:33:11.289Z,57.7
2018-04-18T09:34:18.224Z,62.4
2018-04-18T09:35:25.236Z,59.5
2018-04-18T09:36:32.442Z,61.1
2018-04-18T09:37:39.667Z,61.6
2018-04-18T09:38:46.617Z,52.4
2018-04-18T09:39:53.829Z,60.4
2018-04-18T09:41:01.203Z,48.5
2018-04-18T09:42:08.420Z,48.2
2018-04-18T09:43:15.363Z,41.2
2018-04-18T09:44:22.574Z,54.5
2018-04-18T09:45:29.787Z,55.9
2018-04-18T09:46:37.721Z,46.9
2018-04-18T09:47:44.664Z,44.5
2018-04-18T09:48:51.691Z,41.8
2018-04-18T09:49:58.917Z,48.9
2018-04-18T09:51:06.139Z,48.1
2018-04-18T09:52:13.091Z,48.1
2018-04-18T09:53:20.317Z,52.3
2018-04-18T09:54:27.262Z,47.6
2018-04-18T09:55:34.491Z,39.4
2018-04-18T09:56:41.713Z,42.8
2018-04-18T09:57:48.927Z,49.5
2018-04-18T09:58:56.148Z,38.3
2018-04-18T10:00:03.383Z,38.7
2018-04-18T10:01:10.605Z,36.9
2018-04-18T10:02:17.819Z,42.5
2018-04-18T10:03:25.035Z,34.1
2018-04-18T10:04:32.264Z,35.4
2018-04-18T10:05:39.486Z,36.7
2018-04-18T10:06:46.716Z,35.9
2018-04-18T10:07:53.381Z,38
2018-04-18T10:09:00.602Z,42.6
2018-04-18T10:10:07.830Z,39.3
2018-04-18T10:11:15.055Z,35.9
2018-04-18T10:12:22.277Z,39.5
2018-04-18T10:13:29.491Z,34
2018-04-18T10:14:36.721Z,39.8
2018-04-18T10:15:43.666Z,41.9
2018-04-18T10:16:50.891Z,36.9
2018-04-18T10:17:58.109Z,31.8
2018-04-18T10:19:05.335Z,37.4
2018-04-18T10:20:12.549Z,31
2018-04-18T10:21:19.773Z,44.7
2018-04-18T10:22:27.004Z,33.2
2018-04-18T10:23:34.230Z,38.5
2018-04-18T10:24:41.189Z,34.3
2018-04-18T10:25:48.421Z,41.8
2018-04-18T10:26:55.385Z,32
2018-04-18T10:28:02.601Z,37
2018-04-18T10:29:09.871Z,30.6
2018-04-18T10:30:17.098Z,29.8
2018-04-18T10:31:24.316Z,32.9
2018-04-18T10:32:31.546Z,32.3
2018-04-18T10:33:38.773Z,34.1
2018-04-18T10:34:45.989Z,33.4
2018-04-18T10:35:53.219Z,33.6
2018-04-18T10:37:00.454Z,37.1
2018-04-18T10:38:07.699Z,37.4
2018-04-18T10:39:15.122Z,41.3
2018-04-18T10:40:22.379Z,36.9
2018-04-18T10:41:29.602Z,41.6
2018-04-18T10:42:36.572Z,40.3
2018-04-18T10:43:43.798Z,37.1
2018-04-18T10:44:51.021Z,30
2018-04-18T10:45:58.240Z,35.6
2018-04-18T10:47:05.465Z,33.5
2018-04-18T10:48:12.692Z,28.9
2018-04-18T10:49:19.640Z,26.6
2018-04-18T10:50:26.866Z,28.8
2018-04-18T10:51:34.093Z,31
2018-04-18T10:52:41.313Z,30.4
2018-04-18T10:53:48.534Z,29.3
2018-04-18T10:54:55.755Z,24.3
2018-04-18T10:56:02.703Z,26.9
2018-04-18T10:57:09.930Z,27.8
2018-04-18T10:58:17.146Z,27.5
2018-04-18T10:59:24.372Z,30
2018-04-18T11:00:31.618Z,24.9
2018-04-18T11:01:38.847Z,28.7
2018-04-18T11:02:45.808Z,24.8
2018-04-18T11:03:52.764Z,23.4
2018-04-18T11:04:59.729Z,27.8
2018-04-18T11:06:06.669Z,28.2
2018-04-18T11:07:13.900Z,23.3
2018-04-18T11:09:43.025Z,28.4
2018-04-18T11:10:50.249Z,29.2
2018-04-18T11:11:57.493Z,24.7
2018-04-18T11:13:04.727Z,29.4
2018-04-18T11:14:11.952Z,28
2018-04-18T11:15:19.173Z,23.7
2018-04-18T11:16:26.421Z,29.8
2018-04-18T11:17:33.641Z,22.2
2018-04-18T11:18:40.899Z,24.4
2018-04-18T11:19:48.274Z,23.9
2018-04-18T11:20:55.221Z,30.1
2018-04-18T11:22:02.448Z,22.4
2018-04-18T11:23:09.405Z,21.6
2018-04-18T11:24:16.351Z,23.9
2018-04-18T11:25:23.562Z,29.1
2018-04-18T11:26:30.787Z,26.2
2018-04-18T11:27:38.023Z,29.9
2018-04-18T11:28:45.240Z,29.9
2018-04-18T11:29:52.462Z,25.2
2018-04-18T11:30:59.682Z,23.7
2018-04-18T11:32:06.923Z,22.6
2018-04-18T11:33:14.140Z,29.4
2018-04-18T11:34:21.365Z,25.9
2018-04-18T11:35:28.585Z,26.4
2018-04-18T11:36:35.817Z,28
2018-04-18T11:37:43.039Z,22.1
2018-04-18T11:38:49.988Z,22.7
2018-04-18T11:39:56.930Z,19.3
2018-04-18T11:41:04.142Z,21.8
2018-04-18T11:42:11.373Z,19.7
2018-04-18T11:43:18.621Z,22.7
2018-04-18T11:44:25.886Z,20.7
2018-04-18T11:45:33.185Z,19.7
2018-04-18T11:46:40.462Z,24.3
2018-04-18T11:47:47.136Z,27.2
2018-04-18T11:48:54.365Z,21.3
2018-04-18T11:50:01.589Z,24.1
2018-04-18T11:51:08.834Z,24
2018-04-18T11:52:16.216Z,21.9
2018-04-18T11:53:23.434Z,20.8
2018-04-18T11:54:30.653Z,24.1
2018-04-18T11:55:37.879Z,24.1
2018-04-18T11:56:45.099Z,20.1
2018-04-18T11:57:52.326Z,24.1
2018-04-18T11:58:59.545Z,22.6
2018-04-18T12:00:06.768Z,21
2018-04-18T12:01:14.143Z,23.1
2018-04-18T12:02:21.604Z,24.5
2018-04-18T12:03:28.830Z,21.8
2018-04-18T12:04:35.782Z,20.4
2018-04-18T12:05:42.753Z,24
2018-04-18T12:06:49.738Z,24.5
2018-04-18T12:07:56.962Z,23.1
2018-04-18T12:09:03.922Z,24.2
2018-04-18T12:10:11.146Z,20.7
2018-04-18T12:11:18.364Z,25.3
2018-04-18T12:12:25.311Z,21.3
2018-04-18T12:13:32.543Z,20.8
2018-04-18T12:14:39.752Z,25.3
2018-04-18T12:15:46.997Z,27.1
2018-04-18T12:16:54.223Z,22.1
2018-04-18T12:18:01.170Z,20.6
2018-04-18T12:19:08.439Z,21.4
2018-04-18T12:20:15.666Z,24.4
2018-04-18T12:21:22.892Z,17.7
2018-04-18T12:22:30.116Z,19.5
2018-04-18T12:23:37.344Z,23.2
2018-04-18T12:24:44.318Z,20.1
2018-04-18T12:25:51.541Z,19.8
2018-04-18T12:26:58.766Z,24.6
2018-04-18T12:28:06.021Z,19.2
2018-04-18T12:29:13.256Z,17.3
2018-04-18T12:30:20.496Z,24.4
2018-04-18T12:31:27.723Z,16.8
2018-04-18T12:32:34.963Z,14.7
2018-04-18T12:33:42.207Z,17.2
2018-04-18T12:34:49.503Z,15.6
2018-04-18T12:35:56.450Z,17.7
2018-04-18T12:37:03.400Z,15.7
2018-04-18T12:38:10.618Z,18.9
2018-04-18T12:39:17.843Z,17.3
2018-04-18T12:40:25.074Z,13.5
2018-04-18T12:41:32.306Z,12.6
2018-04-18T12:42:39.535Z,13.3
2018-04-18T12:43:46.794Z,13.4
2018-04-18T12:44:54.086Z,14.9
2018-04-18T12:46:01.308Z,15.4
2018-04-18T12:47:08.530Z,15.3
2018-04-18T12:48:15.201Z,18.6
2018-04-18T12:49:22.158Z,16.9
2018-04-18T12:50:29.380Z,19.7
2018-04-18T12:51:36.606Z,19.3
2018-04-18T12:52:43.845Z,16
2018-04-18T12:53:51.090Z,15.5
2018-04-18T12:54:58.316Z,14.3
2018-04-18T12:56:05.267Z,18
2018-04-18T12:57:12.506Z,14.5
2018-04-18T12:58:19.741Z,18.6
2018-04-18T12:59:26.687Z,13.2
2018-04-18T13:00:33.909Z,15.3
2018-04-18T13:01:41.155Z,14.4
2018-04-18T13:02:48.400Z,15.1
2018-04-18T13:03:55.621Z,16.1
2018-04-18T13:05:02.580Z,16.8
2018-04-18T13:06:09.810Z,14.7
2018-04-18T13:07:16.761Z,15.1
2018-04-18T13:08:24.008Z,12.2
2018-04-18T13:09:31.241Z,13.2
2018-04-18T13:10:38.510Z,10
2018-04-18T13:11:45.845Z,12.6
2018-04-18T13:12:53.083Z,12.9
2018-04-18T13:13:59.760Z,12.5
2018-04-18T13:15:07.025Z,14.9
2018-04-18T13:16:14.250Z,12.1
2018-04-18T13:18:42.804Z,16.8
2018-04-18T13:19:50.032Z,16.8
2018-04-18T13:20:57.251Z,15.5
2018-04-18T13:22:04.478Z,13.8
2018-04-18T13:23:11.702Z,13.6
2018-04-18T13:24:18.928Z,15.4
2018-04-18T13:25:26.173Z,13.9
2018-04-18T13:26:33.161Z,10.7
2018-04-18T13:27:40.400Z,12.5
2018-04-18T13:28:47.856Z,14.3
2018-04-18T13:29:55.104Z,13.8
2018-04-18T13:31:02.093Z,14.7
2018-04-18T13:32:09.172Z,13.1
2018-04-18T13:33:16.400Z,12
2018-04-18T13:34:23.639Z,12.1
2018-04-18T13:35:30.870Z,12.3
2018-04-18T13:36:38.099Z,14.5
2018-04-18T13:37:45.331Z,11.6
2018-04-18T13:38:52.584Z,12
2018-04-18T13:39:59.813Z,11.7
2018-04-18T13:41:07.038Z,14.3
2018-04-18T13:42:14.268Z,14.6
2018-04-18T13:43:21.492Z,12.8
2018-04-18T13:44:28.719Z,13.3
2018-04-18T13:45:35.949Z,15.1
2018-04-18T13:46:42.926Z,13.9
2018-04-18T13:47:50.130Z,14.2
2018-04-18T13:48:57.358Z,17.7
2018-04-18T13:50:04.805Z,17.2
2018-04-18T13:51:12.044Z,18.2
2018-04-18T13:52:19.277Z,15.5
2018-04-18T13:53:26.503Z,13.6
2018-04-18T13:54:33.735Z,16.2
2018-04-18T13:55:40.971Z,13.5
2018-04-18T13:56:48.233Z,11.5
2018-04-18T13:57:55.190Z,13.4
2018-04-18T13:59:02.421Z,11.2
2018-04-18T14:00:09.669Z,18
2018-04-18T14:01:16.905Z,12.6
2018-04-18T14:02:24.154Z,13.9
2018-04-18T14:03:31.378Z,19.3
2018-04-18T14:04:38.619Z,15.4
2018-04-18T14:05:45.862Z,11.1
2018-04-18T14:06:53.319Z,10.4
2018-04-18T14:08:00.567Z,10.6
2018-04-18T14:09:07.798Z,14.2
2018-04-18T14:10:15.021Z,13.8
2018-04-18T14:11:22.246Z,10.9
2018-04-18T14:12:29.472Z,11
2018-04-18T14:14:43.627Z,14.5
2018-04-18T14:15:50.856Z,12.8
2018-04-18T14:16:57.804Z,16.4
2018-04-18T14:18:04.488Z,15.5
2018-04-18T14:19:11.710Z,15.8
2018-04-18T14:20:18.944Z,10.7
2018-04-18T14:21:26.190Z,14.7
2018-04-18T14:22:33.413Z,11.3
2018-04-18T14:23:40.649Z,11.3
2018-04-18T14:24:47.880Z,14.7
2018-04-18T14:25:55.107Z,12
2018-04-18T14:27:02.336Z,13.4
2018-04-18T14:28:09.564Z,10.3
2018-04-18T14:29:16.785Z,9.6
2018-04-18T14:30:24.004Z,11.7
2018-04-18T14:31:30.955Z,15.8
2018-04-18T14:32:38.244Z,10.1
2018-04-18T14:33:45.511Z,9.8
2018-04-18T14:34:52.497Z,14.1
2018-04-18T14:35:59.476Z,11.5
2018-04-18T14:37:06.428Z,11.6
2018-04-18T14:38:13.645Z,11.1
2018-04-18T14:39:20.902Z,10.4
2018-04-18T14:40:28.144Z,14
2018-04-18T14:41:35.100Z,13.8
2018-04-18T14:42:42.322Z,12.9
2018-04-18T14:43:49.578Z,14.2
2018-04-18T14:44:56.808Z,10.9
2018-04-18T14:46:04.033Z,11.1
2018-04-18T14:47:11.294Z,11.7
2018-04-18T14:48:18.555Z,15.4
2018-04-18T14:49:25.774Z,14.9
2018-04-18T14:50:33.007Z,11.5
2018-04-18T14:51:40.231Z,12.2
2018-04-18T14:52:47.455Z,12.8
2018-04-18T14:53:54.712Z,10.6
2018-04-18T14:55:01.942Z,9
2018-04-18T14:56:09.174Z,11.4
2018-04-18T14:57:16.392Z,11
2018-04-18T14:58:23.346Z,13.7
2018-04-18T14:59:30.284Z,10.4
2018-04-18T15:00:37.513Z,9.8